Time;durP1;ratioP1;P1;durP2;ratioP2;P2;SDS_P1;SDS_P2;PMS_P1;PMS_P2;Temp;Humidity;BMP_temperature;BMP_pressure;BME280_temperature;BME280_humidity;BME280_pressure;Samples;Min_cycle;Max_cycle;Signal;HPM_P1;HPM_P2
2021/04/26 00:01:41;;;;;;;6.15;1.80;;;6.10;72.20;;;;;;5075151;28;20078;-70
2021/04/26 00:04:07;;;;;;;7.07;1.65;;;6.10;74.70;;;;;;5075193;28;20034;-71
2021/04/26 00:06:33;;;;;;;7.75;1.90;;;6.10;76.20;;;;;;5074860;28;20021;-70
2021/04/26 00:08:58;;;;;;;10.00;2.30;;;6.10;75.00;;;;;;5074871;28;20453;-71
2021/04/26 00:11:24;;;;;;;10.60;2.35;;;6.10;73.70;;;;;;5074595;28;20416;-71
2021/04/26 00:13:49;;;;;;;7.40;2.05;;;6.00;72.80;;;;;;5074744;28;20032;-70
2021/04/26 00:16:15;;;;;;;7.75;2.00;;;6.00;72.60;;;;;;5074468;28;20066;-70
2021/04/26 00:18:41;;;;;;;9.15;1.77;;;6.00;74.00;;;;;;5073692;28;20012;-71
2021/04/26 00:21:06;;;;;;;6.38;1.90;;;6.00;72.80;;;;;;5074606;28;20021;-70
2021/04/26 00:23:32;;;;;;;6.50;2.13;;;6.00;73.90;;;;;;5074352;28;20024;-71
2021/04/26 00:25:58;;;;;;;15.45;3.28;;;5.90;74.20;;;;;;5074490;28;20015;-70
2021/04/26 00:28:23;;;;;;;7.13;1.80;;;5.90;72.00;;;;;;5073395;28;20055;-69
2021/04/26 00:30:49;;;;;;;8.93;2.58;;;5.90;73.90;;;;;;5073765;28;20078;-71
2021/04/26 00:33:15;;;;;;;10.20;2.35;;;5.80;73.00;;;;;;5073523;28;20020;-71
2021/04/26 00:35:40;;;;;;;4.93;2.13;;;5.90;76.00;;;;;;5075116;28;20024;-70
2021/04/26 00:38:06;;;;;;;8.18;2.78;;;5.80;74.10;;;;;;5073165;28;20024;-70
2021/04/26 00:40:32;;;;;;;10.60;2.53;;;5.80;74.20;;;;;;5073250;28;20016;-71
2021/04/26 00:42:57;;;;;;;9.60;1.60;;;5.70;72.40;;;;;;5074157;28;20468;-71
2021/04/26 00:45:25;;;;;;;5.10;1.60;;;5.80;75.00;;;;;;5074192;28;20346;-70
2021/04/26 00:47:52;;;;;;;11.45;3.05;;;5.70;75.80;;;;;;5074505;28;20035;-71
2021/04/26 00:50:20;;;;;;;4.90;2.05;;;5.60;75.20;;;;;;5074381;28;20476;-71
2021/04/26 00:52:49;;;;;;;5.32;1.30;;;5.70;76.50;;;;;;5074030;28;20457;-70
2021/04/26 00:55:15;;;;;;;4.07;1.70;;;5.60;76.40;;;;;;5072644;28;20021;-71
2021/04/26 00:57:41;;;;;;;7.43;2.03;;;5.70;77.10;;;;;;5072883;28;20017;-71
2021/04/26 01:00:08;;;;;;;9.07;2.63;;;5.70;75.90;;;;;;5073592;28;20031;-70
2021/04/26 01:02:34;;;;;;;8.93;2.20;;;5.70;76.90;;;;;;5073789;28;20166;-70
2021/04/26 01:05:03;;;;;;;6.55;1.92;;;5.60;76.50;;;;;;5073092;28;20103;-70
2021/04/26 01:07:29;;;;;;;3.38;1.50;;;5.60;76.80;;;;;;5072097;28;20063;-70
2021/04/26 01:09:55;;;;;;;9.25;2.35;;;5.50;74.30;;;;;;5073502;28;20103;-71
2021/04/26 01:12:21;;;;;;;7.82;2.53;;;5.50;74.80;;;;;;5073729;28;20055;-70
2021/04/26 01:15:02;;;;;;;8.70;2.15;;;5.50;75.10;;;;;;5074076;28;20024;-70
2021/04/26 01:17:32;;;;;;;9.85;2.22;;;5.40;72.90;;;;;;5073405;28;20036;-71
2021/04/26 01:20:14;;;;;;;5.47;1.42;;;5.40;73.10;;;;;;5072410;28;20023;-70
2021/04/26 01:23:07;;;;;;;9.40;2.50;;;5.40;76.30;;;;;;5073296;28;20028;-71
2021/04/26 01:25:34;;;;;;;10.27;2.65;;;5.30;75.00;;;;;;5073501;28;20021;-71
2021/04/26 01:28:23;;;;;;;6.32;2.50;;;5.30;72.40;;;;;;5073548;28;20035;-71
2021/04/26 01:31:07;;;;;;;8.32;2.25;;;5.20;73.30;;;;;;5072282;28;20551;-71
2021/04/26 01:33:37;;;;;;;8.90;2.45;;;5.20;73.00;;;;;;5073183;28;20016;-71
2021/04/26 01:36:05;;;;;;;11.43;2.70;;;5.10;74.70;;;;;;5071891;28;20082;-71
2021/04/26 01:38:35;;;;;;;9.55;2.60;;;5.10;72.60;;;;;;5073095;28;20289;-70
2021/04/26 01:41:02;;;;;;;9.82;2.22;;;5.10;72.10;;;;;;5072102;28;20034;-70
2021/04/26 01:43:29;;;;;;;9.25;3.35;;;5.00;73.80;;;;;;5072965;28;20031;-71
2021/04/26 01:46:00;;;;;;;5.72;1.75;;;5.00;74.10;;;;;;5073194;28;20016;-71
2021/04/26 01:48:28;;;;;;;7.90;2.25;;;5.00;78.50;;;;;;5071541;28;20411;-70
2021/04/26 01:50:56;;;;;;;7.35;2.10;;;5.00;76.80;;;;;;5071778;28;20043;-71
2021/04/26 01:53:22;;;;;;;2.30;1.10;;;5.10;77.40;;;;;;5072463;28;20386;-71
2021/04/26 01:55:48;;;;;;;8.27;2.53;;;5.10;78.90;;;;;;5072692;28;20017;-70
2021/04/26 01:58:17;;;;;;;4.35;2.25;;;5.10;77.20;;;;;;5071414;28;20433;-70
2021/04/26 02:00:43;;;;;;;11.80;2.72;;;5.10;76.20;;;;;;5072924;28;20354;-69
2021/04/26 02:03:10;;;;;;;8.50;2.80;;;5.10;74.00;;;;;;5072301;28;20029;-71
2021/04/26 02:05:36;;;;;;;6.30;2.30;;;5.10;75.20;;;;;;5072536;28;20063;-70
2021/04/26 02:08:03;;;;;;;7.30;2.00;;;5.00;75.00;;;;;;5071526;28;20025;-70
2021/04/26 02:10:29;;;;;;;8.55;2.38;;;5.00;78.20;;;;;;5072447;28;20485;-70
2021/04/26 02:12:57;;;;;;;8.35;2.42;;;5.00;76.80;;;;;;5072354;28;20059;-71
2021/04/26 02:15:25;;;;;;;10.23;2.45;;;5.00;75.60;;;;;;5072453;28;20471;-70
2021/04/26 02:17:51;;;;;;;6.00;1.73;;;5.00;78.10;;;;;;5072809;28;20047;-70
2021/04/26 02:20:18;;;;;;;7.93;2.22;;;5.10;78.40;;;;;;5071020;28;20448;-69
2021/04/26 02:22:51;;;;;;;6.22;1.92;;;5.10;78.50;;;;;;5071209;28;20448;-70
2021/04/26 02:25:18;;;;;;;7.55;1.88;;;5.10;78.60;;;;;;5070889;28;20032;-70
2021/04/26 02:27:45;;;;;;;8.93;2.70;;;5.00;76.50;;;;;;5072673;28;20040;-70
2021/04/26 02:30:11;;;;;;;9.82;2.17;;;5.00;76.50;;;;;;5072346;28;20103;-71
2021/04/26 02:32:46;;;;;;;3.22;1.60;;;5.00;75.00;;;;;;5072529;28;20077;-70
2021/04/26 02:35:15;;;;;;;6.38;1.65;;;5.00;75.90;;;;;;5071311;28;20020;-70
2021/04/26 02:37:49;;;;;;;7.18;2.47;;;5.00;78.20;;;;;;5072564;28;20096;-70
2021/04/26 02:40:17;;;;;;;6.70;1.92;;;5.10;79.40;;;;;;5070942;28;20017;-70
2021/04/26 02:42:45;;;;;;;6.18;1.65;;;5.00;77.40;;;;;;5072406;28;20654;-70
2021/04/26 02:45:14;;;;;;;7.18;1.95;;;5.00;78.30;;;;;;5070808;28;20095;-71
2021/04/26 02:47:41;;;;;;;6.22;2.05;;;5.00;78.80;;;;;;5070989;28;20024;-70
2021/04/26 02:50:08;;;;;;;7.20;2.50;;;5.00;75.40;;;;;;5072096;28;20024;-70
2021/04/26 02:52:35;;;;;;;5.65;1.85;;;5.00;76.20;;;;;;5071830;28;20024;-70
2021/04/26 02:55:02;;;;;;;7.90;1.70;;;5.00;77.50;;;;;;5072273;28;20020;-71
2021/04/26 02:57:31;;;;;;;11.30;2.42;;;5.00;79.30;;;;;;5070431;28;20020;-70
2021/04/26 02:59:57;;;;;;;4.40;1.90;;;5.00;75.90;;;;;;5070936;28;20027;-71
2021/04/26 03:02:23;;;;;;;5.95;1.40;;;5.00;78.50;;;;;;5071527;28;20025;-70
2021/04/26 03:04:50;;;;;;;6.82;1.67;;;5.00;79.50;;;;;;5070568;28;20067;-70
2021/04/26 03:07:18;;;;;;;8.07;2.15;;;5.00;77.00;;;;;;5071555;28;20099;-70
2021/04/26 03:09:45;;;;;;;9.27;2.15;;;4.90;76.50;;;;;;5070543;28;20044;-71
2021/04/26 03:12:10;;;;;;;8.40;2.85;;;4.90;76.20;;;;;;5071889;28;20024;-70
2021/04/26 03:14:38;;;;;;;9.98;2.63;;;4.90;77.80;;;;;;5070486;28;20429;-71
2021/04/26 03:17:04;;;;;;;8.45;2.20;;;4.90;77.30;;;;;;5072172;28;20017;-71
2021/04/26 03:19:30;;;;;;;6.78;2.47;;;4.90;75.70;;;;;;5071459;28;20027;-70
2021/04/26 03:21:57;;;;;;;10.82;2.33;;;4.90;75.70;;;;;;5071573;28;20035;-70
2021/04/26 03:24:22;;;;;;;4.53;1.50;;;4.80;75.40;;;;;;5070175;28;20040;-70
2021/04/26 03:26:51;;;;;;;7.28;2.08;;;4.80;77.90;;;;;;5070566;28;20445;-69
2021/04/26 03:29:20;;;;;;;7.60;2.30;;;4.80;78.30;;;;;;5073590;28;20017;-71
2021/04/26 03:31:50;;;;;;;11.30;3.22;;;4.70;76.40;;;;;;5075422;28;20343;-70
2021/04/26 03:34:17;;;;;;;11.88;2.28;;;4.70;76.90;;;;;;5073851;28;20084;-70
2021/04/26 03:36:43;;;;;;;8.90;2.40;;;4.70;75.80;;;;;;5075412;28;20094;-70
2021/04/26 03:39:11;;;;;;;3.63;1.52;;;4.70;77.40;;;;;;5075446;28;20020;-70
2021/04/26 03:41:37;;;;;;;7.47;2.55;;;4.60;77.40;;;;;;5073752;28;20024;-70
2021/04/26 03:44:17;;;;;;;8.68;2.13;;;4.70;80.50;;;;;;5074204;28;20059;-70
2021/04/26 03:46:57;;;;;;;10.10;2.83;;;4.60;78.60;;;;;;5074301;28;20095;-71
2021/04/26 03:49:23;;;;;;;3.47;1.08;;;4.60;76.50;;;;;;5073672;28;20016;-69
2021/04/26 03:51:49;;;;;;;10.90;2.67;;;4.60;79.30;;;;;;5074082;28;20020;-69
2021/04/26 03:54:15;;;;;;;6.75;2.42;;;4.50;77.90;;;;;;5075166;28;20066;-70
2021/04/26 03:56:41;;;;;;;9.30;2.50;;;4.50;80.50;;;;;;5075556;28;20016;-70
2021/04/26 03:59:07;;;;;;;7.43;3.00;;;4.50;79.70;;;;;;5075574;28;20024;-70
2021/04/26 04:01:32;;;;;;;8.38;2.05;;;4.50;79.30;;;;;;5073393;28;20433;-70
2021/04/26 04:03:58;;;;;;;4.80;2.08;;;4.50;80.60;;;;;;5073591;28;20062;-69
2021/04/26 04:06:24;;;;;;;9.18;3.10;;;4.50;80.10;;;;;;5074966;28;20016;-69
2021/04/26 04:08:49;;;;;;;4.50;1.60;;;4.50;80.40;;;;;;5074573;28;20020;-70
2021/04/26 04:11:15;;;;;;;7.85;2.15;;;4.40;78.70;;;;;;5074873;28;20081;-70
2021/04/26 04:13:42;;;;;;;6.80;2.65;;;4.50;79.30;;;;;;5074795;28;20099;-70
2021/04/26 04:16:08;;;;;;;9.57;3.33;;;4.40;80.50;;;;;;5073634;28;20012;-71
2021/04/26 04:18:34;;;;;;;6.18;2.00;;;4.40;79.30;;;;;;5073431;28;20017;-71
2021/04/26 04:21:00;;;;;;;13.27;3.03;;;4.40;79.20;;;;;;5075446;28;20109;-70
2021/04/26 04:23:26;;;;;;;6.88;1.90;;;4.40;80.40;;;;;;5073333;28;20364;-71
2021/04/26 04:25:52;;;;;;;9.63;3.10;;;4.40;79.50;;;;;;5073988;28;20020;-71
2021/04/26 04:28:18;;;;;;;3.38;1.30;;;4.40;79.30;;;;;;5073700;28;20021;-70
2021/04/26 04:30:43;;;;;;;7.10;2.60;;;4.40;81.00;;;;;;5075052;28;20498;-70
2021/04/26 04:33:09;;;;;;;5.90;1.73;;;4.40;80.80;;;;;;5074964;28;20077;-71
2021/04/26 04:35:35;;;;;;;8.60;1.80;;;4.40;81.30;;;;;;5074134;28;20375;-70
2021/04/26 04:38:03;;;;;;;8.80;2.28;;;4.50;80.40;;;;;;5074428;28;20488;-70
2021/04/26 04:40:29;;;;;;;8.23;2.47;;;4.50;80.00;;;;;;5074078;28;20206;-70
2021/04/26 04:42:55;;;;;;;8.20;2.08;;;4.50;80.80;;;;;;5072827;28;20244;-70
2021/04/26 04:45:20;;;;;;;2.85;1.15;;;4.50;80.30;;;;;;5073974;28;20361;-70
2021/04/26 04:47:46;;;;;;;12.48;3.03;;;4.50;81.80;;;;;;5072684;28;20016;-71
2021/04/26 04:50:12;;;;;;;9.45;2.58;;;4.60;80.70;;;;;;5072973;28;20024;-69
2021/04/26 04:52:38;;;;;;;7.03;1.90;;;4.60;79.20;;;;;;5074005;28;20396;-71
2021/04/26 04:55:04;;;;;;;7.43;1.67;;;4.60;78.60;;;;;;5072912;28;20043;-71
2021/04/26 04:57:30;;;;;;;7.43;2.15;;;4.60;79.00;;;;;;5072689;28;20019;-70
2021/04/26 04:59:56;;;;;;;7.07;1.90;;;4.70;79.70;;;;;;5074119;28;20016;-70
2021/04/26 05:02:21;;;;;;;3.33;0.88;;;4.70;80.50;;;;;;5073720;28;20024;-70
2021/04/26 05:04:47;;;;;;;4.25;1.27;;;4.80;81.10;;;;;;5074073;28;20435;-70
2021/04/26 05:07:12;;;;;;;7.43;2.47;;;4.80;80.20;;;;;;5072675;28;20019;-70
2021/04/26 05:09:38;;;;;;;5.88;1.77;;;4.90;79.60;;;;;;5072220;28;20464;-70
2021/04/26 05:12:04;;;;;;;6.60;2.28;;;4.90;78.50;;;;;;5074292;28;20464;-70
2021/04/26 05:14:31;;;;;;;2.45;1.10;;;5.00;80.40;;;;;;5072153;28;20066;-70
2021/04/26 05:16:57;;;;;;;3.78;1.33;;;5.10;79.20;;;;;;5073621;28;20024;-69
2021/04/26 05:19:23;;;;;;;5.75;1.33;;;5.10;80.10;;;;;;5071926;28;20112;-70
2021/04/26 05:21:49;;;;;;;8.57;2.42;;;5.20;80.10;;;;;;5072121;28;20020;-70
2021/04/26 05:24:14;;;;;;;5.68;1.30;;;5.20;78.40;;;;;;5073225;28;20023;-70
2021/04/26 05:26:40;;;;;;;7.05;1.63;;;5.30;78.40;;;;;;5071779;28;20025;-70
2021/04/26 05:29:05;;;;;;;5.35;1.88;;;5.40;79.80;;;;;;5071959;28;20099;-70
2021/04/26 05:31:31;;;;;;;8.25;1.50;;;5.50;78.70;;;;;;5072963;28;20024;-70
2021/04/26 05:33:57;;;;;;;10.65;2.80;;;5.60;79.20;;;;;;5072190;28;20048;-71
2021/04/26 05:36:23;;;;;;;8.73;2.78;;;5.60;77.70;;;;;;5071839;28;20346;-70
2021/04/26 05:38:48;;;;;;;3.38;1.30;;;5.70;75.50;;;;;;5072195;28;20045;-70
2021/04/26 05:41:14;;;;;;;5.68;1.92;;;5.70;77.70;;;;;;5071985;28;20107;-70
2021/04/26 05:43:40;;;;;;;8.05;2.13;;;5.80;76.50;;;;;;5071691;28;20063;-70
2021/04/26 05:46:05;;;;;;;7.65;3.05;;;5.90;77.20;;;;;;5072950;28;20362;-70
2021/04/26 05:48:32;;;;;;;7.97;2.55;;;6.00;77.10;;;;;;5072846;28;20024;-69
2021/04/26 05:50:58;;;;;;;8.13;2.72;;;6.00;73.60;;;;;;5071082;28;20015;-69
2021/04/26 05:53:23;;;;;;;9.05;2.92;;;6.10;73.60;;;;;;5054582;28;20127;-70
2021/04/26 05:55:50;;;;;;;9.32;2.13;;;6.30;72.20;;;;;;5068450;28;20025;-70
2021/04/26 05:58:16;;;;;;;10.55;2.75;;;6.30;72.90;;;;;;5072769;28;20020;-71
2021/04/26 06:00:41;;;;;;;8.98;2.60;;;6.40;73.90;;;;;;5071106;28;20021;-71
2021/04/26 06:03:07;;;;;;;5.32;2.33;;;6.50;71.60;;;;;;5072437;28;20434;-71
2021/04/26 06:05:33;;;;;;;7.97;3.08;;;6.60;70.40;;;;;;5071106;28;20028;-72
2021/04/26 06:07:59;;;;;;;9.55;3.20;;;6.70;70.30;;;;;;5071343;28;20017;-72
2021/04/26 06:10:28;;;;;;;8.95;2.42;;;6.80;69.60;;;;;;5071049;28;20455;-73
2021/04/26 06:12:53;;;;;;;8.00;2.90;;;6.80;68.50;;;;;;5071371;28;20468;-72
2021/04/26 06:15:23;;;;;;;9.82;2.80;;;6.90;71.10;;;;;;5072053;28;20065;-72
2021/04/26 06:17:49;;;;;;;8.93;2.70;;;7.00;68.50;;;;;;5071038;28;20088;-72
2021/04/26 06:20:15;;;;;;;5.15;2.03;;;7.10;67.40;;;;;;5071172;28;20281;-72
2021/04/26 06:22:41;;;;;;;5.80;1.80;;;7.10;67.00;;;;;;5072002;28;20060;-72
2021/04/26 06:25:08;;;;;;;9.02;3.13;;;7.30;69.30;;;;;;5071135;28;20048;-71
2021/04/26 06:27:33;;;;;;;9.55;2.30;;;7.40;67.00;;;;;;5070785;28;20028;-72
2021/04/26 06:29:59;;;;;;;5.93;1.88;;;7.50;67.30;;;;;;5072470;28;20405;-72
2021/04/26 06:32:25;;;;;;;6.50;1.88;;;7.60;68.00;;;;;;5070466;28;20115;-72
2021/04/26 06:34:51;;;;;;;11.38;2.65;;;7.70;65.90;;;;;;5070989;28;20031;-71
2021/04/26 06:37:17;;;;;;;7.00;2.13;;;7.80;64.40;;;;;;5070912;28;20013;-72
2021/04/26 06:39:43;;;;;;;9.25;2.22;;;8.00;67.00;;;;;;5070635;28;21039;-72
2021/04/26 06:42:09;;;;;;;5.93;2.42;;;8.10;63.90;;;;;;5071770;28;20171;-72
2021/04/26 06:44:34;;;;;;;12.35;3.90;;;8.20;63.40;;;;;;5071759;28;20052;-72
2021/04/26 06:47:00;;;;;;;8.85;2.95;;;8.30;62.70;;;;;;5070908;28;20101;-72
2021/04/26 06:49:26;;;;;;;9.07;2.25;;;8.50;61.80;;;;;;5071786;28;20052;-72
2021/04/26 06:51:52;;;;;;;3.50;1.40;;;8.60;61.50;;;;;;5070806;28;20016;-73
2021/04/26 06:54:19;;;;;;;9.25;2.13;;;8.70;64.70;;;;;;5071745;28;20020;-72
2021/04/26 06:56:45;;;;;;;16.33;4.15;;;8.90;64.50;;;;;;5071554;28;20298;-73
2021/04/26 06:59:11;;;;;;;11.15;2.42;;;9.00;60.00;;;;;;5071741;28;20098;-73
2021/04/26 07:01:37;;;;;;;11.57;3.65;;;9.10;58.80;;;;;;5071594;28;20477;-73
2021/04/26 07:04:03;;;;;;;11.55;2.85;;;9.10;58.60;;;;;;5072305;28;20033;-72
2021/04/26 07:06:29;;;;;;;6.00;2.53;;;9.10;58.90;;;;;;5074618;28;20103;-72
2021/04/26 07:08:54;;;;;;;10.63;3.05;;;9.20;58.40;;;;;;5075904;28;20529;-72
2021/04/26 07:11:20;;;;;;;8.40;2.28;;;9.40;58.40;;;;;;5074730;28;20019;-73
2021/04/26 07:13:46;;;;;;;6.75;2.40;;;9.60;56.90;;;;;;5074587;28;20020;-73
2021/04/26 07:16:11;;;;;;;13.05;2.88;;;9.60;57.00;;;;;;5084485;28;20061;-72
2021/04/26 07:18:38;;;;;;;8.60;2.28;;;9.70;55.70;;;;;;5095498;28;20015;-72
2021/04/26 07:21:04;;;;;;;6.70;2.25;;;9.80;56.30;;;;;;5094702;28;20020;-73
2021/04/26 07:23:30;;;;;;;3.58;1.73;;;10.00;56.50;;;;;;5090697;28;20373;-73
2021/04/26 07:25:56;;;;;;;7.75;2.33;;;10.20;58.20;;;;;;5075403;28;20024;-73
2021/04/26 07:28:21;;;;;;;8.15;2.97;;;10.50;55.00;;;;;;5074380;28;20186;-73
2021/04/26 07:30:47;;;;;;;8.77;2.78;;;10.60;59.10;;;;;;5075492;28;20454;-74
2021/04/26 07:33:12;;;;;;;6.97;2.28;;;10.80;54.10;;;;;;5074284;28;20024;-73
2021/04/26 07:35:38;;;;;;;9.95;2.55;;;10.80;53.10;;;;;;5075033;28;20012;-72
2021/04/26 07:38:04;;;;;;;4.63;1.95;;;11.00;53.60;;;;;;5074328;28;20364;-72
2021/04/26 07:40:30;;;;;;;5.72;1.67;;;11.10;56.90;;;;;;5073869;28;20046;-72
2021/04/26 07:42:55;;;;;;;6.10;2.00;;;11.30;57.30;;;;;;5075040;28;20380;-73
2021/04/26 07:45:21;;;;;;;5.30;1.85;;;11.30;52.70;;;;;;5075104;28;20020;-72
2021/04/26 07:47:48;;;;;;;6.60;2.28;;;11.40;51.30;;;;;;5074847;28;20021;-72
2021/04/26 07:50:17;;;;;;;5.20;1.85;;;11.40;50.10;;;;;;5075081;28;20012;-73
2021/04/26 07:52:43;;;;;;;4.55;1.50;;;11.60;53.40;;;;;;5074903;28;20055;-73
2021/04/26 07:55:09;;;;;;;5.75;2.30;;;11.60;52.30;;;;;;5073878;28;20020;-72
2021/04/26 07:57:35;;;;;;;4.25;1.80;;;11.70;50.50;;;;;;5074720;28;20097;-72
2021/04/26 08:00:03;;;;;;;6.25;2.10;;;11.80;53.10;;;;;;5074046;28;20029;-72
2021/04/26 08:02:31;;;;;;;6.32;1.67;;;11.90;54.70;;;;;;5073579;28;20452;-72
2021/04/26 08:04:57;;;;;;;5.53;2.22;;;12.20;53.00;;;;;;5074808;28;20020;-73
2021/04/26 08:07:23;;;;;;;7.10;2.13;;;12.40;52.00;;;;;;5073477;28;20023;-73
2021/04/26 08:09:49;;;;;;;6.20;1.98;;;12.60;47.00;;;;;;5073036;28;20036;-73
2021/04/26 08:12:15;;;;;;;7.30;1.60;;;12.70;50.10;;;;;;5073581;28;20170;-73
2021/04/26 08:14:40;;;;;;;7.75;2.22;;;12.70;52.90;;;;;;5073138;28;20111;-71
2021/04/26 08:17:06;;;;;;;6.30;2.05;;;12.90;46.20;;;;;;5073949;28;20445;-72
2021/04/26 08:19:32;;;;;;;6.43;1.13;;;13.00;47.70;;;;;;5073477;28;20024;-72
2021/04/26 08:21:58;;;;;;;8.55;1.95;;;13.20;54.20;;;;;;5075250;28;20035;-72
2021/04/26 08:24:25;;;;;;;7.70;1.98;;;13.30;49.10;;;;;;5073404;28;20020;-73
2021/04/26 08:26:50;;;;;;;4.55;1.75;;;13.50;52.90;;;;;;5072835;28;20027;-73
2021/04/26 08:29:16;;;;;;;6.50;2.13;;;13.60;53.30;;;;;;5073430;28;20020;-73
2021/04/26 08:31:42;;;;;;;8.32;2.38;;;13.80;47.30;;;;;;5072889;28;20051;-73
2021/04/26 08:34:08;;;;;;;8.63;1.88;;;13.90;46.70;;;;;;5072992;28;20377;-73
2021/04/26 08:36:33;;;;;;;5.07;2.13;;;14.00;43.70;;;;;;5074066;28;20345;-73
2021/04/26 08:39:00;;;;;;;4.38;1.50;;;14.20;43.00;;;;;;5072653;28;20372;-73
2021/04/26 08:41:26;;;;;;;8.48;2.10;;;14.20;52.70;;;;;;5072803;28;20012;-73
2021/04/26 08:43:51;;;;;;;6.70;2.00;;;14.20;45.10;;;;;;5073942;28;20112;-73
2021/04/26 08:46:17;;;;;;;8.13;1.90;;;14.40;45.40;;;;;;5074300;28;20016;-73
2021/04/26 08:48:43;;;;;;;6.70;1.95;;;14.50;44.10;;;;;;5074125;28;20265;-73
2021/04/26 08:51:08;;;;;;;2.60;1.27;;;14.50;42.00;;;;;;5074498;28;20253;-73
2021/04/26 08:53:34;;;;;;;4.50;1.02;;;14.50;51.50;;;;;;5072809;28;20029;-73
2021/04/26 08:56:00;;;;;;;8.80;1.70;;;14.60;52.70;;;;;;5074334;28;20070;-73
2021/04/26 08:58:27;;;;;;;5.25;1.70;;;14.80;46.70;;;;;;5074194;28;20027;-73
2021/04/26 09:00:53;;;;;;;5.57;2.42;;;15.00;43.60;;;;;;5072644;28;20021;-74
2021/04/26 09:03:19;;;;;;;7.28;2.63;;;15.10;40.20;;;;;;5074125;28;20025;-74
2021/04/26 09:05:46;;;;;;;6.97;2.22;;;15.20;48.80;;;;;;5073895;28;20021;-74
2021/04/26 09:08:21;;;;;;;4.45;1.95;;;15.30;40.10;;;;;;5072660;28;20493;-72
2021/04/26 09:10:50;;;;;;;3.08;1.80;;;15.40;41.70;;;;;;5071973;28;20040;-73
2021/04/26 09:13:28;;;;;;;5.55;2.22;;;15.60;48.20;;;;;;5074044;28;20028;-74
2021/04/26 09:15:58;;;;;;;10.38;2.38;;;15.80;41.30;;;;;;5072501;28;20025;-74
2021/04/26 09:18:43;;;;;;;4.65;1.88;;;15.80;39.00;;;;;;5074030;28;20025;-73
2021/04/26 09:21:30;;;;;;;7.22;2.15;;;15.80;38.00;;;;;;5073602;28;20020;-74
2021/04/26 09:24:15;;;;;;;6.22;1.40;;;15.80;37.20;;;;;;5072355;28;20111;-73
2021/04/26 09:26:43;;;;;;;5.95;2.38;;;15.90;47.00;;;;;;5070933;28;20108;-74
2021/04/26 09:29:18;;;;;;;6.00;2.30;;;16.00;38.00;;;;;;5072401;28;20021;-74
2021/04/26 09:32:05;;;;;;;6.53;2.85;;;16.20;36.00;;;;;;5073418;28;20009;-74
2021/04/26 09:34:32;;;;;;;8.38;2.42;;;16.50;36.30;;;;;;5072365;28;20009;-73
2021/04/26 09:37:16;;;;;;;6.97;2.28;;;16.80;40.90;;;;;;5072122;28;20028;-73
2021/04/26 09:40:00;;;;;;;8.45;2.33;;;17.10;36.60;;;;;;5073209;28;20012;-73
2021/04/26 09:42:38;;;;;;;7.38;2.35;;;17.10;35.00;;;;;;5073391;28;20063;-74
2021/04/26 09:45:29;;;;;;;4.93;2.15;;;16.80;34.40;;;;;;5072131;28;20518;-74
2021/04/26 09:48:12;;;;;;;4.35;2.00;;;16.60;35.10;;;;;;5066400;28;20033;-74
2021/04/26 09:50:55;;;;;;;6.30;2.60;;;16.30;35.30;;;;;;5073092;28;20013;-73
2021/04/26 09:53:22;;;;;;;7.07;2.75;;;16.10;35.20;;;;;;5073279;28;20360;-73
2021/04/26 09:55:50;;;;;;;5.50;2.40;;;16.10;38.40;;;;;;5072933;28;20027;-73
2021/04/26 09:58:16;;;;;;;5.80;2.30;;;16.10;35.90;;;;;;5072987;28;20013;-73
2021/04/26 10:00:46;;;;;;;5.47;2.40;;;16.00;35.50;;;;;;5072692;28;20020;-73
2021/04/26 10:03:16;;;;;;;5.85;2.55;;;16.30;37.10;;;;;;5071395;28;20020;-74
2021/04/26 10:05:44;;;;;;;5.72;2.50;;;16.70;36.30;;;;;;5072184;28;20342;-74
2021/04/26 10:08:14;;;;;;;8.13;2.75;;;16.80;34.50;;;;;;5071642;28;20017;-74
2021/04/26 10:10:42;;;;;;;3.45;1.63;;;16.60;34.80;;;;;;5073046;28;20119;-73
2021/04/26 10:13:09;;;;;;;5.88;2.03;;;16.40;46.20;;;;;;5072140;28;20075;-73
2021/04/26 10:15:35;;;;;;;6.28;2.35;;;16.40;42.60;;;;;;5073616;28;20426;-72
2021/04/26 10:18:04;;;;;;;6.90;2.40;;;16.60;37.00;;;;;;5074240;28;20052;-72
2021/04/26 10:20:40;;;;;;;7.15;2.50;;;16.90;38.80;;;;;;5072037;28;20043;-74
2021/04/26 10:23:36;;;;;;;4.32;2.28;;;17.20;35.40;;;;;;5070925;28;20089;-75
2021/04/26 10:26:03;;;;;;;6.03;2.20;;;17.40;34.00;;;;;;5070869;28;20028;-73
2021/04/26 10:28:36;;;;;;;8.00;2.17;;;17.60;38.10;;;;;;5070865;28;20078;-73
2021/04/26 10:31:15;;;;;;;5.85;2.05;;;17.60;33.60;;;;;;5072509;28;20020;-74
2021/04/26 10:33:56;;;;;;;5.45;2.33;;;17.40;33.50;;;;;;5072407;28;20016;-74
2021/04/26 10:36:40;;;;;;;8.32;2.75;;;17.50;33.30;;;;;;5072528;28;20039;-74
2021/04/26 10:39:16;;;;;;;6.45;2.03;;;17.50;34.20;;;;;;5072347;28;20020;-72
2021/04/26 10:41:49;;;;;;;8.43;2.97;;;17.60;40.10;;;;;;5070825;28;20025;-73
2021/04/26 10:44:36;;;;;;;7.07;2.17;;;17.70;35.70;;;;;;5072330;28;20020;-73
2021/04/26 10:47:23;;;;;;;8.27;2.80;;;17.90;34.50;;;;;;5054224;28;20016;-73
2021/04/26 10:50:19;;;;;;;6.80;2.70;;;18.00;36.70;;;;;;5072141;28;20021;-73
2021/04/26 10:52:49;;;;;;;6.82;2.65;;;18.00;33.20;;;;;;5064217;28;20471;-74
2021/04/26 10:55:24;;;;;;;9.25;3.03;;;17.80;37.30;;;;;;5070882;28;20155;-73
2021/04/26 10:57:51;;;;;;;7.13;2.42;;;17.70;33.90;;;;;;5070758;28;20021;-72
2021/04/26 11:00:26;;;;;;;4.85;2.00;;;17.60;33.50;;;;;;5070781;28;20048;-72
2021/04/26 11:02:58;;;;;;;7.07;2.30;;;17.60;41.00;;;;;;5072037;28;20036;-73
2021/04/26 11:05:29;;;;;;;8.73;2.83;;;17.60;34.30;;;;;;5071096;28;20037;-74
2021/04/26 11:10:29;;;;;;;7.95;2.75;;;17.90;34.90;;;;;;5071897;28;20051;-74
2021/04/26 11:12:56;;;;;;;8.75;3.28;;;18.20;35.40;;;;;;5071651;28;20032;-74
2021/04/26 11:15:23;;;;;;;8.43;3.65;;;18.30;32.70;;;;;;5072008;28;20029;-74
2021/04/26 11:17:50;;;;;;;6.93;2.30;;;18.20;34.20;;;;;;5071708;28;20028;-74
2021/04/26 11:20:22;;;;;;;7.80;2.70;;;17.90;33.80;;;;;;5072270;28;20039;-73
2021/04/26 11:22:52;;;;;;;7.07;2.60;;;17.70;38.00;;;;;;5071473;28;20469;-74
2021/04/26 11:25:39;;;;;;;5.97;2.45;;;17.70;34.20;;;;;;5070238;28;20020;-73
2021/04/26 11:28:08;;;;;;;7.80;2.95;;;18.10;34.50;;;;;;5070669;28;20013;-73
2021/04/26 11:30:35;;;;;;;7.00;2.83;;;18.20;32.90;;;;;;5071923;28;20404;-74
2021/04/26 11:33:13;;;;;;;7.70;2.60;;;18.40;33.40;;;;;;5070449;28;20028;-73
2021/04/26 11:36:09;;;;;;;4.05;1.90;;;18.70;33.20;;;;;;5070425;28;20047;-73
2021/04/26 11:38:39;;;;;;;7.75;2.45;;;18.70;39.60;;;;;;5072231;28;20334;-73
2021/04/26 11:41:08;;;;;;;7.13;2.70;;;18.90;34.00;;;;;;5070607;28;20384;-73
2021/04/26 11:43:42;;;;;;;3.42;1.58;;;18.90;33.20;;;;;;5070480;28;20452;-73
2021/04/26 11:46:08;;;;;;;6.57;2.25;;;18.70;42.90;;;;;;5071858;28;20025;-74
2021/04/26 11:48:35;;;;;;;6.35;2.47;;;18.90;37.40;;;;;;5070454;28;20020;-74
2021/04/26 11:51:00;;;;;;;6.22;2.47;;;18.90;32.50;;;;;;5073182;28;20341;-74
2021/04/26 11:53:33;;;;;;;7.35;3.05;;;19.00;35.50;;;;;;5075235;28;20028;-75
2021/04/26 11:56:13;;;;;;;8.00;2.70;;;19.10;33.20;;;;;;5075248;28;20012;-74
2021/04/26 11:58:39;;;;;;;6.53;1.73;;;19.10;36.80;;;;;;5075235;28;20043;-73
2021/04/26 12:01:06;;;;;;;6.00;2.20;;;19.10;43.90;;;;;;5074855;28;20453;-74
2021/04/26 12:03:32;;;;;;;6.00;2.70;;;19.30;35.50;;;;;;5057526;28;20027;-74
2021/04/26 12:06:01;;;;;;;9.38;2.80;;;19.60;32.30;;;;;;5073828;28;20016;-74
2021/04/26 12:08:45;;;;;;;6.20;3.28;;;19.80;32.60;;;;;;5074105;28;20012;-73
2021/04/26 12:11:20;;;;;;;8.38;2.40;;;20.10;30.60;;;;;;5074045;28;20469;-73
2021/04/26 12:14:05;;;;;;;5.63;2.40;;;19.90;33.80;;;;;;5074177;28;20032;-73
2021/04/26 12:16:32;;;;;;;8.27;3.22;;;20.10;32.00;;;;;;5075533;28;20043;-73
2021/04/26 12:19:02;;;;;;;5.90;2.67;;;20.30;34.10;;;;;;5073320;28;20005;-73
2021/04/26 12:21:28;;;;;;;13.88;2.88;;;20.20;30.30;;;;;;5082285;28;20023;-74
2021/04/26 12:23:54;;;;;;;7.63;2.55;;;20.10;32.70;;;;;;5082652;28;20035;-74
2021/04/26 12:26:20;;;;;;;3.53;1.02;;;20.00;37.90;;;;;;5095115;28;20028;-74
2021/04/26 12:28:48;;;;;;;6.55;1.15;;;20.10;47.70;;;;;;5093647;28;20020;-74
2021/04/26 12:31:19;;;;;;;8.88;2.65;;;20.30;45.50;;;;;;5093620;28;20020;-73
2021/04/26 12:33:44;;;;;;;7.35;2.30;;;20.60;30.40;;;;;;5093444;28;20396;-74
2021/04/26 12:36:10;;;;;;;6.97;2.42;;;20.80;35.90;;;;;;5093173;28;20019;-74
2021/04/26 12:38:37;;;;;;;4.60;1.35;;;21.00;34.70;;;;;;5093545;28;20455;-73
2021/04/26 12:41:03;;;;;;;2.65;0.85;;;21.10;46.80;;;;;;5093058;28;20016;-74
2021/04/26 12:43:40;;;;;;;6.88;1.77;;;20.90;47.60;;;;;;5094556;28;20071;-74
2021/04/26 12:46:08;;;;;;;3.83;1.20;;;20.90;36.10;;;;;;5092798;28;20027;-74
2021/04/26 12:48:34;;;;;;;4.13;1.30;;;20.90;47.60;;;;;;5095018;28;20086;-74
2021/04/26 12:51:03;;;;;;;4.38;1.50;;;20.90;46.70;;;;;;5094539;28;20024;-75
2021/04/26 12:53:28;;;;;;;5.03;1.77;;;20.80;45.50;;;;;;5093155;28;20016;-73
2021/04/26 12:56:02;;;;;;;6.47;3.33;;;20.80;36.00;;;;;;5089497;28;20496;-73
2021/04/26 12:58:32;;;;;;;4.45;1.10;;;20.70;30.00;;;;;;5074099;28;20409;-74
2021/04/26 13:01:03;;;;;;;4.25;1.10;;;20.60;46.30;;;;;;5071666;28;20020;-74
2021/04/26 13:03:36;;;;;;;5.43;1.50;;;20.60;44.60;;;;;;5072646;28;20079;-74